createdAt,value
2023-01-10T00:00:04.575Z,100.00
2023-01-10T00:04:56.489Z,100.00
2023-01-10T00:09:51.423Z,100.00
2023-01-10T00:14:43.121Z,100.00
2023-01-10T00:19:34.890Z,100.00
2023-01-10T00:24:26.576Z,100.00
2023-01-10T00:29:20.105Z,100.00
2023-01-10T00:34:12.190Z,100.00
2023-01-10T00:39:05.215Z,100.00
2023-01-10T00:43:56.944Z,100.00
2023-01-10T00:48:48.649Z,100.00
2023-01-10T00:53:40.322Z,100.00
2023-01-10T00:58:32.961Z,100.00
2023-01-10T01:03:24.675Z,100.00
2023-01-10T01:08:18.553Z,100.00
2023-01-10T01:13:19.628Z,100.00
2023-01-10T01:18:18.990Z,100.00
2023-01-10T01:23:10.716Z,100.00
2023-01-10T01:28:02.469Z,100.00
2023-01-10T01:32:54.214Z,100.00
2023-01-10T01:37:46.247Z,100.00
2023-01-10T01:42:38.371Z,100.00
2023-01-10T01:47:30.197Z,100.00
2023-01-10T01:52:34.479Z,100.00
2023-01-10T01:57:31.537Z,100.00
2023-01-10T02:02:34.621Z,100.00
2023-01-10T02:07:33.818Z,100.00
2023-01-10T02:12:28.315Z,100.00
2023-01-10T02:17:20.259Z,100.00
2023-01-10T02:22:39.602Z,100.00
2023-01-10T02:27:48.295Z,100.00
2023-01-10T02:33:04.053Z,100.00
2023-01-10T02:38:32.887Z,100.00
2023-01-10T02:43:34.399Z,100.00
2023-01-10T02:48:27.698Z,100.00
2023-01-10T02:53:29.244Z,100.00
2023-01-10T02:58:51.703Z,100.00
2023-01-10T03:04:27.719Z,100.00
2023-01-10T03:09:35.798Z,100.00
2023-01-10T03:14:30.483Z,100.00
2023-01-10T03:19:26.793Z,100.00
2023-01-10T03:24:32.520Z,100.00
2023-01-10T03:29:43.576Z,100.00
2023-01-10T03:34:36.487Z,100.00
2023-01-10T03:39:52.277Z,100.00
2023-01-10T03:45:08.985Z,100.00
2023-01-10T03:50:08.439Z,100.00
2023-01-10T03:55:00.539Z,100.00
2023-01-10T03:59:58.657Z,100.00
2023-01-10T04:04:50.469Z,100.00
2023-01-10T04:09:42.158Z,100.00
2023-01-10T04:14:33.884Z,100.00
2023-01-10T04:19:26.031Z,100.00
2023-01-10T04:24:17.724Z,100.00
2023-01-10T04:29:09.459Z,100.00
2023-01-10T04:34:01.138Z,100.00
2023-01-10T04:38:52.878Z,100.00
2023-01-10T04:43:44.658Z,100.00
2023-01-10T04:48:37.287Z,100.00
2023-01-10T04:53:29.122Z,100.00
2023-01-10T04:58:20.814Z,100.00
2023-01-10T05:13:37.681Z,100.00
2023-01-10T05:18:34.356Z,100.00
2023-01-10T05:28:32.695Z,100.00
2023-01-10T05:33:26.587Z,100.00
2023-01-10T05:38:20.287Z,100.00
2023-01-10T05:48:19.679Z,100.00
2023-01-10T06:03:27.484Z,100.00
2023-01-10T06:13:25.697Z,100.00
2023-01-10T06:18:19.230Z,100.00
2023-01-10T06:23:21.020Z,100.00
2023-01-10T06:59:02.285Z,100.00
2023-01-10T07:09:00.990Z,100.00
2023-01-10T07:44:34.467Z,100.00
2023-01-10T08:04:48.993Z,99.61
2023-01-10T08:20:02.243Z,96.74
2023-01-10T08:35:15.212Z,98.64
2023-01-10T08:50:25.660Z,96.24
2023-01-10T09:00:26.832Z,96.98
2023-01-10T09:05:28.390Z,95.81
2023-01-10T14:36:38.751Z,66.22
2023-01-10T17:33:12.506Z,88.04
2023-01-10T18:03:52.619Z,91.03
2023-01-10T18:44:28.397Z,91.65
2023-01-10T18:54:36.378Z,92.35
2023-01-10T19:04:35.698Z,92.68
2023-01-10T19:24:50.178Z,91.88
2023-01-10T19:29:47.948Z,91.19
2023-01-10T19:34:49.572Z,91.69
2023-01-10T20:00:14.605Z,88.39
2023-01-10T20:05:15.201Z,88.39
2023-01-10T20:20:31.224Z,85.66
2023-01-10T21:01:25.044Z,86.17
2023-01-10T21:11:30.080Z,82.35
2023-01-10T21:31:43.765Z,84.02
2023-01-10T21:36:37.892Z,83.28
2023-01-10T21:57:15.814Z,82.91
2023-01-10T22:02:17.503Z,83.84
2023-01-10T22:07:11.397Z,83.37
2023-01-10T22:12:03.871Z,84.86
2023-01-10T22:32:19.425Z,87.19
2023-01-10T22:37:19.537Z,87.28
2023-01-10T22:42:13.748Z,87.34
2023-01-10T22:52:12.660Z,87.20
2023-01-10T22:57:04.893Z,85.01
2023-01-10T23:02:01.050Z,84.07
2023-01-10T23:06:59.096Z,84.59
2023-01-10T23:12:02.899Z,83.96
2023-01-10T23:17:06.598Z,83.42
2023-01-10T23:27:04.842Z,83.33
2023-01-10T23:32:04.652Z,83.15
2023-01-10T23:36:57.613Z,83.30
2023-01-10T23:46:57.082Z,81.18
2023-01-10T23:51:49.065Z,79.73
